Aérodrome :
LOGIN :

S'inscrire | Disclaimer

   EN    FR    IT 

 










Légende :    VFR   VFR Marginal   IFR   IFR Intensif   IFR Très Intensif
Visi : 
Plafond : 
>= 8 km
>= 3000ft
5 à 8 km
1000 à 3000 ft
1500m à 5 km
500 à 1000 ft
800 à 1500m
200 à 500 ft
< 800m
< 200 ft
Symboles :   Orages  Brouillard  Fortes neiges  Fortes précipitations  Vent > 20 kt
SIGMETs :   Divers  Orages  Givrage  Turbulence  Onde Orograph.  Cendres Volcan.






- Altitude de l'aérodrome : 13 ft
- Code IATA : LYX


EGMD - Lydd

DERNIER METAR :
  • 091920Z AUTO 31005KT 9999 NCD M01/M01 Q1008

METARs EXPIRÉS :
  • 090450Z AUTO 32007KT 9999 NCD M04/M04 Q1008
  • 091850Z AUTO 32009KT 9999 NCD M00/M01 Q1008
  • 091820Z 34006KT 9000 NSC M01/M01 Q1008
  • 091750Z 31004KT 9000 NSC M01/M01 Q1008
  • 091720Z 32006KT 9000 NSC M00/M00 Q1008
  • 091650Z 31003KT 9999 FEW010 00/00 Q1008

TAF TAF EGMD
Valide du 09 à 18h jusqu'au 10 à 03h UTC


091701Z 0918/1003 33008KT 9999 FEW010
PROB30
TEMPO 0918/0924 7000 BKN014
PROB30
TEMPO 0918/0924 3000 BR
PROB30 1000/1003 0300 FG VV///
ATIS : +44 1797 322 422



MET'MAP, la Météo Aéronautique d'un coup d'oeil ! - Copyright ORBIFLY Décembre 2007 - Disclaimer

ORBIFLY MET'MAP TEAM :

Programmation & Développement : Alexandra Zaïnal
Sur une idée originale de : Baudouin d'Aumeries
Soutien technique & logistique : Manuel Goepfert
Assistance : Marc-Olivier Méhu




SOURCES & CREDITS :

   NOAA